sensor_id;sensor_type;location;lat;lon;timestamp;pressure;altitude;pressure_sealevel;temperature;humidity
63929;BME280;50105;46.522;6.626;2022-07-23T00:00:57;96114.13;;;22.81;55.84
63929;BME280;50105;46.522;6.626;2022-07-23T00:03:24;96118.56;;;22.80;56.13
63929;BME280;50105;46.522;6.626;2022-07-23T00:05:51;96118.56;;;22.80;56.10
63929;BME280;50105;46.522;6.626;2022-07-23T00:08:17;96119.41;;;22.81;55.81
63929;BME280;50105;46.522;6.626;2022-07-23T00:10:43;96108.84;;;22.81;55.80
63929;BME280;50105;46.522;6.626;2022-07-23T00:13:10;96108.00;;;22.80;56.22
63929;BME280;50105;46.522;6.626;2022-07-23T00:15:36;96101.84;;;22.80;55.89
63929;BME280;50105;46.522;6.626;2022-07-23T00:18:03;96099.22;;;22.80;56.15
63929;BME280;50105;46.522;6.626;2022-07-23T00:20:29;96085.19;;;22.79;56.04
63929;BME280;50105;46.522;6.626;2022-07-23T00:22:56;96079.06;;;22.79;56.09
63929;BME280;50105;46.522;6.626;2022-07-23T00:25:22;96076.41;;;22.79;56.13
63929;BME280;50105;46.522;6.626;2022-07-23T00:27:55;96073.78;;;22.79;56.10
63929;BME280;50105;46.522;6.626;2022-07-23T00:30:21;96066.84;;;22.78;56.11
63929;BME280;50105;46.522;6.626;2022-07-23T00:32:52;96057.94;;;22.79;56.15
63929;BME280;50105;46.522;6.626;2022-07-23T00:35:21;96050.97;;;22.78;56.11
63929;BME280;50105;46.522;6.626;2022-07-23T00:37:48;96065.84;;;22.79;55.72
63929;BME280;50105;46.522;6.626;2022-07-23T00:40:15;96066.00;;;22.77;56.14
63929;BME280;50105;46.522;6.626;2022-07-23T00:42:41;96077.41;;;22.78;56.31
63929;BME280;50105;46.522;6.626;2022-07-23T00:45:08;96085.31;;;22.78;56.17
63929;BME280;50105;46.522;6.626;2022-07-23T00:47:34;96102.97;;;22.77;56.14
63929;BME280;50105;46.522;6.626;2022-07-23T00:50:01;96109.09;;;22.78;56.17
63929;BME280;50105;46.522;6.626;2022-07-23T00:52:27;96114.38;;;22.78;56.21
63929;BME280;50105;46.522;6.626;2022-07-23T00:54:54;96120.66;;;22.77;56.20
63929;BME280;50105;46.522;6.626;2022-07-23T00:57:20;96136.38;;;22.78;55.88
63929;BME280;50105;46.522;6.626;2022-07-23T00:59:53;96144.41;;;22.77;55.82
63929;BME280;50105;46.522;6.626;2022-07-23T01:02:20;96159.44;;;22.76;56.25
63929;BME280;50105;46.522;6.626;2022-07-23T01:04:46;96162.19;;;22.74;56.20
63929;BME280;50105;46.522;6.626;2022-07-23T01:07:13;96166.50;;;22.76;56.23
63929;BME280;50105;46.522;6.626;2022-07-23T01:09:39;96165.56;;;22.77;56.25
63929;BME280;50105;46.522;6.626;2022-07-23T01:12:06;96153.28;;;22.76;56.30
63929;BME280;50105;46.522;6.626;2022-07-23T01:14:33;96132.16;;;22.76;55.92
63929;BME280;50105;46.522;6.626;2022-07-23T01:16:59;96115.50;;;22.75;56.19
63929;BME280;50105;46.522;6.626;2022-07-23T01:19:26;96149.97;;;22.73;56.30
63929;BME280;50105;46.522;6.626;2022-07-23T01:21:52;96149.97;;;22.73;56.09
63929;BME280;50105;46.522;6.626;2022-07-23T01:24:19;96167.47;;;22.74;56.19
63929;BME280;50105;46.522;6.626;2022-07-23T01:26:46;96165.81;;;22.73;56.27
63929;BME280;50105;46.522;6.626;2022-07-23T01:29:13;96157.75;;;22.75;56.34
63929;BME280;50105;46.522;6.626;2022-07-23T01:31:40;96151.75;;;22.73;56.33
63929;BME280;50105;46.522;6.626;2022-07-23T01:34:07;96166.66;;;22.74;56.24
63929;BME280;50105;46.522;6.626;2022-07-23T01:36:34;96174.72;;;22.72;56.30
63929;BME280;50105;46.522;6.626;2022-07-23T01:39:01;96171.09;;;22.73;56.07
63929;BME280;50105;46.522;6.626;2022-07-23T01:41:28;96172.75;;;22.74;55.99
63929;BME280;50105;46.522;6.626;2022-07-23T01:43:55;96167.47;;;22.74;56.42
63929;BME280;50105;46.522;6.626;2022-07-23T01:46:22;96162.19;;;22.74;56.52
63929;BME280;50105;46.522;6.626;2022-07-23T01:48:48;96169.44;;;22.72;56.32
63929;BME280;50105;46.522;6.626;2022-07-23T01:51:15;96178.31;;;22.71;56.32
63929;BME280;50105;46.522;6.626;2022-07-23T01:53:41;96186.94;;;22.73;56.33
63929;BME280;50105;46.522;6.626;2022-07-23T01:56:08;96192.22;;;22.73;56.62
63929;BME280;50105;46.522;6.626;2022-07-23T01:58:34;96169.44;;;22.72;56.20
63929;BME280;50105;46.522;6.626;2022-07-23T02:01:01;96174.72;;;22.72;56.22
63929;BME280;50105;46.522;6.626;2022-07-23T02:03:27;96183.47;;;22.73;56.63
63929;BME280;50105;46.522;6.626;2022-07-23T02:05:54;96176.50;;;22.72;56.81
63929;BME280;50105;46.522;6.626;2022-07-23T02:08:20;96173.88;;;22.72;56.77
63929;BME280;50105;46.522;6.626;2022-07-23T02:10:47;96185.28;;;22.72;56.85
63929;BME280;50105;46.522;6.626;2022-07-23T02:13:14;96188.88;;;22.71;56.62
63929;BME280;50105;46.522;6.626;2022-07-23T02:15:45;96187.94;;;22.72;56.92
63929;BME280;50105;46.522;6.626;2022-07-23T02:18:11;96203.78;;;22.72;56.70
63929;BME280;50105;46.522;6.626;2022-07-23T02:20:38;96200.41;;;22.70;57.00
63929;BME280;50105;46.522;6.626;2022-07-23T02:23:04;96199.44;;;22.71;56.97
63929;BME280;50105;46.522;6.626;2022-07-23T02:25:32;96199.44;;;22.71;57.05
63929;BME280;50105;46.522;6.626;2022-07-23T02:27:58;96204.88;;;22.70;56.86
63929;BME280;50105;46.522;6.626;2022-07-23T02:30:25;96209.19;;;22.71;57.20
63929;BME280;50105;46.522;6.626;2022-07-23T02:32:52;96206.69;;;22.69;57.16
63929;BME280;50105;46.522;6.626;2022-07-23T02:35:18;96192.50;;;22.70;56.96
63929;BME280;50105;46.522;6.626;2022-07-23T02:37:44;96187.22;;;22.70;57.32
63929;BME280;50105;46.522;6.626;2022-07-23T02:40:11;96176.63;;;22.70;57.29
63929;BME280;50105;46.522;6.626;2022-07-23T02:42:38;96183.75;;;22.70;57.27
63929;BME280;50105;46.522;6.626;2022-07-23T02:45:05;96174.13;;;22.69;57.50
63929;BME280;50105;46.522;6.626;2022-07-23T02:47:31;96179.41;;;22.69;57.50
63929;BME280;50105;46.522;6.626;2022-07-23T02:49:58;96181.94;;;22.70;57.47
63929;BME280;50105;46.522;6.626;2022-07-23T02:52:24;96188.19;;;22.69;57.53
63929;BME280;50105;46.522;6.626;2022-07-23T02:54:51;96193.47;;;22.69;57.63
63929;BME280;50105;46.522;6.626;2022-07-23T02:57:17;96190.81;;;22.69;57.31
63929;BME280;50105;46.522;6.626;2022-07-23T02:59:44;96183.88;;;22.68;57.65
63929;BME280;50105;46.522;6.626;2022-07-23T03:02:10;96170.53;;;22.70;57.76
63929;BME280;50105;46.522;6.626;2022-07-23T03:04:36;96159.13;;;22.69;57.30
63929;BME280;50105;46.522;6.626;2022-07-23T03:07:03;96152.19;;;22.68;57.83
63929;BME280;50105;46.522;6.626;2022-07-23T03:09:29;96168.03;;;22.68;57.51
63929;BME280;50105;46.522;6.626;2022-07-23T03:11:56;96168.03;;;22.68;57.63
63929;BME280;50105;46.522;6.626;2022-07-23T03:14:22;96174.25;;;22.67;57.72
63929;BME280;50105;46.522;6.626;2022-07-23T03:16:49;96182.19;;;22.67;58.01
63929;BME280;50105;46.522;6.626;2022-07-23T03:19:16;96185.66;;;22.68;58.05
63929;BME280;50105;46.522;6.626;2022-07-23T03:21:42;96194.44;;;22.68;57.70
63929;BME280;50105;46.522;6.626;2022-07-23T03:24:09;96191.81;;;22.68;57.88
63929;BME280;50105;46.522;6.626;2022-07-23T03:26:36;96192.75;;;22.67;57.97
63929;BME280;50105;46.522;6.626;2022-07-23T03:29:03;96199.72;;;22.68;57.85
63929;BME280;50105;46.522;6.626;2022-07-23T03:31:30;96200.66;;;22.67;58.34
63929;BME280;50105;46.522;6.626;2022-07-23T03:34:00;96194.44;;;22.68;58.07
63929;BME280;50105;46.522;6.626;2022-07-23T03:36:26;96198.03;;;22.67;57.96
63929;BME280;50105;46.522;6.626;2022-07-23T03:38:53;96191.94;;;22.67;58.36
63929;BME280;50105;46.522;6.626;2022-07-23T03:41:20;96192.75;;;22.67;58.00
63929;BME280;50105;46.522;6.626;2022-07-23T03:43:46;96189.28;;;22.67;58.46
63929;BME280;50105;46.522;6.626;2022-07-23T03:46:13;96178.72;;;22.67;58.43
63929;BME280;50105;46.522;6.626;2022-07-23T03:48:39;96177.88;;;22.66;58.35
63929;BME280;50105;46.522;6.626;2022-07-23T03:51:06;96179.69;;;22.66;58.57
63929;BME280;50105;46.522;6.626;2022-07-23T03:53:32;96187.47;;;22.67;58.74
63929;BME280;50105;46.522;6.626;2022-07-23T03:55:59;96178.84;;;22.65;58.78
63929;BME280;50105;46.522;6.626;2022-07-23T03:58:26;96184.97;;;22.66;58.66
63929;BME280;50105;46.522;6.626;2022-07-23T04:00:52;96180.50;;;22.66;58.51
63929;BME280;50105;46.522;6.626;2022-07-23T04:03:19;96184.13;;;22.65;58.95
63929;BME280;50105;46.522;6.626;2022-07-23T04:05:45;96183.28;;;22.65;58.97
63929;BME280;50105;46.522;6.626;2022-07-23T04:08:12;96184.97;;;22.66;58.80
63929;BME280;50105;46.522;6.626;2022-07-23T04:10:38;96173.56;;;22.65;58.74
63929;BME280;50105;46.522;6.626;2022-07-23T04:13:05;96177.19;;;22.64;58.94
63929;BME280;50105;46.522;6.626;2022-07-23T04:15:31;96188.56;;;22.65;58.97
63929;BME280;50105;46.522;6.626;2022-07-23T04:17:57;96189.69;;;22.62;58.99
63929;BME280;50105;46.522;6.626;2022-07-23T04:20:24;96187.75;;;22.64;58.90
63929;BME280;50105;46.522;6.626;2022-07-23T04:22:50;96191.38;;;22.63;58.97
63929;BME280;50105;46.522;6.626;2022-07-23T04:25:17;96193.03;;;22.64;58.99
63929;BME280;50105;46.522;6.626;2022-07-23T04:27:43;96198.31;;;22.64;58.92
63929;BME280;50105;46.522;6.626;2022-07-23T04:30:10;96201.94;;;22.63;59.18
63929;BME280;50105;46.522;6.626;2022-07-23T04:32:36;96212.50;;;22.63;59.00
63929;BME280;50105;46.522;6.626;2022-07-23T04:35:12;96212.50;;;22.63;59.33
63929;BME280;50105;46.522;6.626;2022-07-23T04:37:38;96217.78;;;22.63;59.04
63929;BME280;50105;46.522;6.626;2022-07-23T04:40:05;96216.94;;;22.63;59.38
63929;BME280;50105;46.522;6.626;2022-07-23T04:42:31;96212.63;;;22.62;59.30
63929;BME280;50105;46.522;6.626;2022-07-23T04:44:58;96212.50;;;22.63;59.37
63929;BME280;50105;46.522;6.626;2022-07-23T04:47:24;96205.53;;;22.62;59.45
63929;BME280;50105;46.522;6.626;2022-07-23T04:49:53;96209.13;;;22.61;59.29
63929;BME280;50105;46.522;6.626;2022-07-23T04:52:20;96205.53;;;22.62;59.37
63929;BME280;50105;46.522;6.626;2022-07-23T04:54:46;96202.88;;;22.62;59.31
63929;BME280;50105;46.522;6.626;2022-07-23T04:57:13;96210.81;;;22.62;59.48
63929;BME280;50105;46.522;6.626;2022-07-23T04:59:39;96214.41;;;22.61;59.27
63929;BME280;50105;46.522;6.626;2022-07-23T05:02:05;96224.97;;;22.61;59.37
63929;BME280;50105;46.522;6.626;2022-07-23T05:04:32;96219.69;;;22.61;59.84
63929;BME280;50105;46.522;6.626;2022-07-23T05:06:58;96232.91;;;22.61;59.43
63929;BME280;50105;46.522;6.626;2022-07-23T05:09:25;96241.81;;;22.60;59.64
63929;BME280;50105;46.522;6.626;2022-07-23T05:11:51;96252.25;;;22.62;59.85
63929;BME280;50105;46.522;6.626;2022-07-23T05:14:18;96251.41;;;22.61;59.88
63929;BME280;50105;46.522;6.626;2022-07-23T05:16:44;96256.69;;;22.61;59.75
63929;BME280;50105;46.522;6.626;2022-07-23T05:19:11;96251.41;;;22.61;59.50
63929;BME280;50105;46.522;6.626;2022-07-23T05:21:37;96255.00;;;22.60;59.53
63929;BME280;50105;46.522;6.626;2022-07-23T05:24:04;96267.25;;;22.61;59.68
63929;BME280;50105;46.522;6.626;2022-07-23T05:26:30;96274.19;;;22.62;59.76
63929;BME280;50105;46.522;6.626;2022-07-23T05:28:57;96266.56;;;22.59;59.89
63929;BME280;50105;46.522;6.626;2022-07-23T05:31:23;96270.88;;;22.60;59.83
63929;BME280;50105;46.522;6.626;2022-07-23T05:33:50;96269.03;;;22.60;59.97
63929;BME280;50105;46.522;6.626;2022-07-23T05:36:16;96270.00;;;22.59;59.69
63929;BME280;50105;46.522;6.626;2022-07-23T05:38:42;96266.56;;;22.59;60.00
63929;BME280;50105;46.522;6.626;2022-07-23T05:41:09;96274.47;;;22.59;59.80
63929;BME280;50105;46.522;6.626;2022-07-23T05:43:35;96279.75;;;22.59;59.71
63929;BME280;50105;46.522;6.626;2022-07-23T05:46:02;96274.47;;;22.59;59.96
63929;BME280;50105;46.522;6.626;2022-07-23T05:48:28;96269.19;;;22.59;60.07
63929;BME280;50105;46.522;6.626;2022-07-23T05:50:55;96285.03;;;22.59;59.97
63929;BME280;50105;46.522;6.626;2022-07-23T05:53:21;96285.03;;;22.59;60.33
63929;BME280;50105;46.522;6.626;2022-07-23T05:55:48;96292.00;;;22.60;60.04
63929;BME280;50105;46.522;6.626;2022-07-23T05:58:14;96294.75;;;22.58;60.00
63929;BME280;50105;46.522;6.626;2022-07-23T06:00:40;96295.59;;;22.59;60.16
63929;BME280;50105;46.522;6.626;2022-07-23T06:03:07;96304.47;;;22.58;60.01
63929;BME280;50105;46.522;6.626;2022-07-23T06:05:33;96288.63;;;22.58;59.73
63929;BME280;50105;46.522;6.626;2022-07-23T06:08:00;96293.09;;;22.57;60.25
63929;BME280;50105;46.522;6.626;2022-07-23T06:10:26;96293.09;;;22.57;60.25
63929;BME280;50105;46.522;6.626;2022-07-23T06:12:53;96293.91;;;22.58;60.18
63929;BME280;50105;46.522;6.626;2022-07-23T06:15:26;96304.47;;;22.58;59.95
63929;BME280;50105;46.522;6.626;2022-07-23T06:17:53;96301.81;;;22.58;60.01
63929;BME280;50105;46.522;6.626;2022-07-23T06:20:19;96302.81;;;22.57;60.36
63929;BME280;50105;46.522;6.626;2022-07-23T06:22:46;96299.19;;;22.58;60.39
63929;BME280;50105;46.522;6.626;2022-07-23T06:25:12;96302.81;;;22.57;60.42
63929;BME280;50105;46.522;6.626;2022-07-23T06:27:45;96309.75;;;22.58;60.27
63929;BME280;50105;46.522;6.626;2022-07-23T06:30:11;96303.66;;;22.57;60.11
63929;BME280;50105;46.522;6.626;2022-07-23T06:32:38;96302.81;;;22.57;60.19
63929;BME280;50105;46.522;6.626;2022-07-23T06:35:04;96300.16;;;22.57;60.43
63929;BME280;50105;46.522;6.626;2022-07-23T06:37:31;96302.81;;;22.57;60.59
63929;BME280;50105;46.522;6.626;2022-07-23T06:39:57;96310.72;;;22.57;60.39
63929;BME280;50105;46.522;6.626;2022-07-23T06:42:24;96307.13;;;22.58;60.43
63929;BME280;50105;46.522;6.626;2022-07-23T06:44:50;96312.53;;;22.56;60.46
63929;BME280;50105;46.522;6.626;2022-07-23T06:47:17;96308.09;;;22.57;60.18
63929;BME280;50105;46.522;6.626;2022-07-23T06:49:43;96302.81;;;22.57;60.12
63929;BME280;50105;46.522;6.626;2022-07-23T06:52:10;96301.13;;;22.56;60.57
63929;BME280;50105;46.522;6.626;2022-07-23T06:54:36;96307.25;;;22.56;60.47
63929;BME280;50105;46.522;6.626;2022-07-23T06:57:03;96308.09;;;22.57;60.55
63929;BME280;50105;46.522;6.626;2022-07-23T06:59:29;96309.88;;;22.56;60.72
63929;BME280;50105;46.522;6.626;2022-07-23T07:01:56;96316.00;;;22.57;60.47
63929;BME280;50105;46.522;6.626;2022-07-23T07:04:23;96312.53;;;22.56;60.29
63929;BME280;50105;46.522;6.626;2022-07-23T07:06:50;96313.38;;;22.57;60.46
63929;BME280;50105;46.522;6.626;2022-07-23T07:09:16;96314.22;;;22.57;60.24
63929;BME280;50105;46.522;6.626;2022-07-23T07:11:44;96308.09;;;22.57;60.56
63929;BME280;50105;46.522;6.626;2022-07-23T07:14:10;96308.09;;;22.57;60.32
63929;BME280;50105;46.522;6.626;2022-07-23T07:16:37;96313.38;;;22.57;60.32
63929;BME280;50105;46.522;6.626;2022-07-23T07:19:03;96311.69;;;22.56;60.34
63929;BME280;50105;46.522;6.626;2022-07-23T07:21:30;96306.41;;;22.56;60.51
63929;BME280;50105;46.522;6.626;2022-07-23T07:23:56;96310.72;;;22.57;60.34
63929;BME280;50105;46.522;6.626;2022-07-23T07:26:23;96313.38;;;22.57;60.28
63929;BME280;50105;46.522;6.626;2022-07-23T07:28:49;96318.66;;;22.57;60.58
63929;BME280;50105;46.522;6.626;2022-07-23T07:31:16;96313.38;;;22.57;60.61
63929;BME280;50105;46.522;6.626;2022-07-23T07:33:43;96314.34;;;22.56;60.34
63929;BME280;50105;46.522;6.626;2022-07-23T07:36:10;96326.56;;;22.57;60.64
63929;BME280;50105;46.522;6.626;2022-07-23T07:38:43;96326.56;;;22.57;60.58
63929;BME280;50105;46.522;6.626;2022-07-23T07:41:10;96318.66;;;22.57;60.64
63929;BME280;50105;46.522;6.626;2022-07-23T07:43:36;96318.66;;;22.57;60.50
63929;BME280;50105;46.522;6.626;2022-07-23T07:46:03;96316.97;;;22.56;60.63
63929;BME280;50105;46.522;6.626;2022-07-23T07:48:30;96315.03;;;22.58;60.55
63929;BME280;50105;46.522;6.626;2022-07-23T07:50:56;96318.66;;;22.57;60.56
63929;BME280;50105;46.522;6.626;2022-07-23T07:53:24;96329.22;;;22.57;60.69
63929;BME280;50105;46.522;6.626;2022-07-23T07:55:51;96324.91;;;22.56;60.68
63929;BME280;50105;46.522;6.626;2022-07-23T07:58:17;96330.06;;;22.57;60.54
63929;BME280;50105;46.522;6.626;2022-07-23T08:00:44;96318.66;;;22.57;60.62
63929;BME280;50105;46.522;6.626;2022-07-23T08:03:10;96314.34;;;22.56;60.35
63929;BME280;50105;46.522;6.626;2022-07-23T08:05:37;96318.66;;;22.57;60.65
63929;BME280;50105;46.522;6.626;2022-07-23T08:08:04;96316.00;;;22.57;60.29
63929;BME280;50105;46.522;6.626;2022-07-23T08:10:30;96317.81;;;22.56;60.65
63929;BME280;50105;46.522;6.626;2022-07-23T08:12:58;96318.66;;;22.57;60.31
63929;BME280;50105;46.522;6.626;2022-07-23T08:15:25;96320.31;;;22.58;60.68
63929;BME280;50105;46.522;6.626;2022-07-23T08:17:52;96314.34;;;22.56;60.50
63929;BME280;50105;46.522;6.626;2022-07-23T08:20:20;96309.06;;;22.56;60.62
63929;BME280;50105;46.522;6.626;2022-07-23T08:22:51;96308.09;;;22.57;60.71
63929;BME280;50105;46.522;6.626;2022-07-23T08:25:21;96293.22;;;22.56;60.37
63929;BME280;50105;46.522;6.626;2022-07-23T08:27:48;96297.53;;;22.57;60.77
63929;BME280;50105;46.522;6.626;2022-07-23T08:30:15;96297.53;;;22.57;60.62
63929;BME280;50105;46.522;6.626;2022-07-23T08:35:16;96307.25;;;22.56;60.77
63929;BME280;50105;46.522;6.626;2022-07-23T08:37:42;96302.81;;;22.57;60.48
63929;BME280;50105;46.522;6.626;2022-07-23T08:40:09;96300.16;;;22.57;60.77
63929;BME280;50105;46.522;6.626;2022-07-23T08:42:36;96302.81;;;22.57;60.70
63929;BME280;50105;46.522;6.626;2022-07-23T08:45:03;96295.84;;;22.56;60.75
63929;BME280;50105;46.522;6.626;2022-07-23T08:47:30;96300.16;;;22.57;60.71
63929;BME280;50105;46.522;6.626;2022-07-23T08:49:57;96301.97;;;22.56;60.52
63929;BME280;50105;46.522;6.626;2022-07-23T08:52:24;96295.84;;;22.56;60.38
63929;BME280;50105;46.522;6.626;2022-07-23T08:54:53;96289.72;;;22.55;60.65
63929;BME280;50105;46.522;6.626;2022-07-23T08:57:21;96289.59;;;22.57;60.57
63929;BME280;50105;46.522;6.626;2022-07-23T08:59:47;96286.97;;;22.57;60.58
63929;BME280;50105;46.522;6.626;2022-07-23T09:02:13;96294.03;;;22.56;60.81
63929;BME280;50105;46.522;6.626;2022-07-23T09:04:40;96297.53;;;22.57;60.43
63929;BME280;50105;46.522;6.626;2022-07-23T09:07:06;96292.25;;;22.57;60.70
63929;BME280;50105;46.522;6.626;2022-07-23T09:09:33;96291.38;;;22.56;60.71
63929;BME280;50105;46.522;6.626;2022-07-23T09:14:43;96295.59;;;22.59;60.46
63929;BME280;50105;46.522;6.626;2022-07-23T09:17:13;96293.91;;;22.58;60.77
63929;BME280;50105;46.522;6.626;2022-07-23T09:19:40;96292.13;;;22.58;60.50
63929;BME280;50105;46.522;6.626;2022-07-23T09:22:17;96285.97;;;22.58;60.76
63929;BME280;50105;46.522;6.626;2022-07-23T09:25:01;96283.34;;;22.58;60.77
63929;BME280;50105;46.522;6.626;2022-07-23T09:30:24;96284.19;;;22.58;60.70
63929;BME280;50105;46.522;6.626;2022-07-23T09:33:07;96293.09;;;22.57;60.67
63929;BME280;50105;46.522;6.626;2022-07-23T09:38:29;96283.34;;;22.58;60.72
63929;BME280;50105;46.522;6.626;2022-07-23T09:43:55;96289.47;;;22.58;60.47
63929;BME280;50105;46.522;6.626;2022-07-23T09:46:23;96290.31;;;22.59;60.49
63929;BME280;50105;46.522;6.626;2022-07-23T09:48:51;96285.97;;;22.58;60.78
63929;BME280;50105;46.522;6.626;2022-07-23T09:51:20;96283.34;;;22.58;60.90
63929;BME280;50105;46.522;6.626;2022-07-23T09:53:55;96289.47;;;22.58;60.47
63929;BME280;50105;46.522;6.626;2022-07-23T09:56:22;96290.31;;;22.59;60.45
63929;BME280;50105;46.522;6.626;2022-07-23T09:58:53;96291.13;;;22.59;60.88
63929;BME280;50105;46.522;6.626;2022-07-23T10:01:29;96293.66;;;22.61;60.76
63929;BME280;50105;46.522;6.626;2022-07-23T10:03:57;96289.34;;;22.60;60.54
63929;BME280;50105;46.522;6.626;2022-07-23T10:06:24;96296.41;;;22.59;60.92
63929;BME280;50105;46.522;6.626;2022-07-23T10:08:51;96300.88;;;22.59;61.00
63929;BME280;50105;46.522;6.626;2022-07-23T10:11:19;96301.69;;;22.59;60.86
63929;BME280;50105;46.522;6.626;2022-07-23T10:13:45;96308.81;;;22.59;60.55
63929;BME280;50105;46.522;6.626;2022-07-23T10:16:21;96301.56;;;22.61;60.90
63929;BME280;50105;46.522;6.626;2022-07-23T10:18:52;96300.88;;;22.59;60.34
63929;BME280;50105;46.522;6.626;2022-07-23T10:21:26;96298.25;;;22.59;60.86
63929;BME280;50105;46.522;6.626;2022-07-23T10:31:58;96309.63;;;22.59;60.99
63929;BME280;50105;46.522;6.626;2022-07-23T10:34:49;96301.69;;;22.59;60.69
63929;BME280;50105;46.522;6.626;2022-07-23T10:37:22;96304.22;;;22.61;60.96
63929;BME280;50105;46.522;6.626;2022-07-23T10:42:37;96305.88;;;22.62;60.90
63929;BME280;50105;46.522;6.626;2022-07-23T10:47:50;96292.00;;;22.60;60.59
63929;BME280;50105;46.522;6.626;2022-07-23T10:50:21;96298.94;;;22.61;60.89
63929;BME280;50105;46.522;6.626;2022-07-23T10:58:00;96290.03;;;22.62;60.86
63929;BME280;50105;46.522;6.626;2022-07-23T11:00:28;96291.75;;;22.63;60.94
63929;BME280;50105;46.522;6.626;2022-07-23T11:02:56;96297.97;;;22.62;60.95
63929;BME280;50105;46.522;6.626;2022-07-23T11:05:23;96295.31;;;22.62;60.90
63929;BME280;50105;46.522;6.626;2022-07-23T11:16:04;96310.22;;;22.63;60.97
63929;BME280;50105;46.522;6.626;2022-07-23T11:19:05;96307.59;;;22.63;60.90
63929;BME280;50105;46.522;6.626;2022-07-23T11:24:14;96311.03;;;22.64;61.02
63929;BME280;50105;46.522;6.626;2022-07-23T11:32:05;96310.06;;;22.65;60.71
63929;BME280;50105;46.522;6.626;2022-07-23T11:37:05;96298.56;;;22.66;60.73
63929;BME280;50105;46.522;6.626;2022-07-23T11:39:32;96293.13;;;22.67;61.07
63929;BME280;50105;46.522;6.626;2022-07-23T11:41:59;96302.03;;;22.66;61.04
63929;BME280;50105;46.522;6.626;2022-07-23T11:44:26;96296.75;;;22.66;60.95
63929;BME280;50105;46.522;6.626;2022-07-23T11:46:54;96302.03;;;22.66;60.93
63929;BME280;50105;46.522;6.626;2022-07-23T11:49:21;96306.31;;;22.67;61.09
63929;BME280;50105;46.522;6.626;2022-07-23T11:52:01;96288.69;;;22.68;60.66
63929;BME280;50105;46.522;6.626;2022-07-23T11:54:29;96290.47;;;22.67;60.76
63929;BME280;50105;46.522;6.626;2022-07-23T11:56:56;96287.84;;;22.67;61.10
63929;BME280;50105;46.522;6.626;2022-07-23T11:59:22;96287.84;;;22.67;61.07
63929;BME280;50105;46.522;6.626;2022-07-23T12:02:00;96289.53;;;22.68;60.82
63929;BME280;50105;46.522;6.626;2022-07-23T12:05:00;96291.19;;;22.69;60.82
63929;BME280;50105;46.522;6.626;2022-07-23T12:09:55;96299.13;;;22.69;61.22
63929;BME280;50105;46.522;6.626;2022-07-23T12:12:22;96293.97;;;22.68;61.22
63929;BME280;50105;46.522;6.626;2022-07-23T12:14:54;96289.53;;;22.68;61.14
63929;BME280;50105;46.522;6.626;2022-07-23T12:17:20;96292.88;;;22.70;60.74
63929;BME280;50105;46.522;6.626;2022-07-23T12:19:47;96286.78;;;22.70;61.10
63929;BME280;50105;46.522;6.626;2022-07-23T12:22:15;96293.72;;;22.71;61.12
63929;BME280;50105;46.522;6.626;2022-07-23T12:24:58;96291.19;;;22.69;60.88
63929;BME280;50105;46.522;6.626;2022-07-23T12:27:24;96294.53;;;22.71;61.20
63929;BME280;50105;46.522;6.626;2022-07-23T12:29:51;96287.59;;;22.70;61.24
63929;BME280;50105;46.522;6.626;2022-07-23T12:34:44;96284.94;;;22.70;61.16
63929;BME280;50105;46.522;6.626;2022-07-23T12:39:56;96282.31;;;22.70;61.11
63929;BME280;50105;46.522;6.626;2022-07-23T12:42:22;96289.25;;;22.71;61.18
63929;BME280;50105;46.522;6.626;2022-07-23T12:45:03;96277.88;;;22.71;61.12
63929;BME280;50105;46.522;6.626;2022-07-23T12:53:10;96273.28;;;22.73;61.34
63929;BME280;50105;46.522;6.626;2022-07-23T12:55:45;96269.81;;;22.72;60.75
63929;BME280;50105;46.522;6.626;2022-07-23T12:58:51;96264.53;;;22.72;60.85
63929;BME280;50105;46.522;6.626;2022-07-23T13:03:58;96267.88;;;22.74;61.17
63929;BME280;50105;46.522;6.626;2022-07-23T13:06:28;96273.16;;;22.74;61.23
63929;BME280;50105;46.522;6.626;2022-07-23T13:08:56;96267.88;;;22.74;60.89
63929;BME280;50105;46.522;6.626;2022-07-23T13:11:23;96271.34;;;22.75;61.27
63929;BME280;50105;46.522;6.626;2022-07-23T13:13:50;96262.59;;;22.74;61.21
63929;BME280;50105;46.522;6.626;2022-07-23T13:16:16;96267.75;;;22.76;61.16
63929;BME280;50105;46.522;6.626;2022-07-23T13:18:46;96269.53;;;22.76;61.16
63929;BME280;50105;46.522;6.626;2022-07-23T13:21:14;96272.03;;;22.77;60.82
63929;BME280;50105;46.522;6.626;2022-07-23T13:23:43;96263.31;;;22.77;61.31
63929;BME280;50105;46.522;6.626;2022-07-23T13:26:09;96267.59;;;22.78;60.89
63929;BME280;50105;46.522;6.626;2022-07-23T13:28:36;96259.69;;;22.78;61.13
63929;BME280;50105;46.522;6.626;2022-07-23T13:31:02;96262.31;;;22.78;61.19
63929;BME280;50105;46.522;6.626;2022-07-23T13:33:29;96264.00;;;22.79;60.66
63929;BME280;50105;46.522;6.626;2022-07-23T13:35:56;96269.28;;;22.79;61.22
63929;BME280;50105;46.522;6.626;2022-07-23T13:38:22;96270.13;;;22.79;61.04
63929;BME280;50105;46.522;6.626;2022-07-23T13:40:51;96264.00;;;22.79;60.77
63929;BME280;50105;46.522;6.626;2022-07-23T13:43:19;96259.56;;;22.79;60.84
63929;BME280;50105;46.522;6.626;2022-07-23T13:45:48;96258.72;;;22.79;61.19
63929;BME280;50105;46.522;6.626;2022-07-23T13:48:15;96248.13;;;22.79;61.25
63929;BME280;50105;46.522;6.626;2022-07-23T13:50:43;96244.53;;;22.80;60.83
63929;BME280;50105;46.522;6.626;2022-07-23T13:53:11;96245.38;;;22.80;61.05
63929;BME280;50105;46.522;6.626;2022-07-23T13:55:38;96243.41;;;22.82;61.06
63929;BME280;50105;46.522;6.626;2022-07-23T13:58:05;96250.66;;;22.80;60.81
63929;BME280;50105;46.522;6.626;2022-07-23T14:00:32;96245.25;;;22.82;61.04
63929;BME280;50105;46.522;6.626;2022-07-23T14:03:19;96253.16;;;22.82;61.08
63929;BME280;50105;46.522;6.626;2022-07-23T14:05:47;96244.25;;;22.83;61.07
63929;BME280;50105;46.522;6.626;2022-07-23T14:08:14;96244.25;;;22.83;60.48
63929;BME280;50105;46.522;6.626;2022-07-23T14:10:40;96244.25;;;22.83;60.98